Time;durP1;ratioP1;P1;durP2;ratioP2;P2;SDS_P1;SDS_P2;PMS_P1;PMS_P2;Temp;Humidity;BMP_temperature;BMP_pressure;BME280_temperature;BME280_humidity;BME280_pressure;Samples;Min_cycle;Max_cycle;Signal;HPM_P1;HPM_P2
2021/07/14 00:00:09;;;;;;;1999.90;999.90;;;691.60;1843.20;;;;;;5073899;28;20021;-70
2021/07/14 00:02:35;;;;;;;1999.90;999.90;;;691.60;1843.20;;;;;;5073838;28;20012;-72
2021/07/14 00:05:04;;;;;;;1999.90;999.90;;;691.60;1843.20;;;;;;5074031;28;20393;-72
2021/07/14 00:07:29;;;;;;;1999.90;999.90;;;691.70;1843.20;;;;;;5073642;28;20391;-71
2021/07/14 00:09:55;;;;;;;1999.90;999.90;;;691.80;1843.20;;;;;;5073749;28;20027;-71
2021/07/14 00:12:21;;;;;;;1999.90;999.90;;;691.80;1843.20;;;;;;5073619;28;20032;-72
2021/07/14 00:22:04;;;;;;;1999.90;999.90;;;691.80;1843.20;;;;;;5053464;28;20035;-71
2021/07/14 00:23:21;;;;;;;1999.90;999.90;;;691.70;1843.20;;;;;;5073388;28;20112;-71
2021/07/14 00:25:48;;;;;;;1999.90;999.90;;;691.60;1868.80;;;;;;5073474;28;20028;-72
2021/07/14 00:28:15;;;;;;;1999.90;999.90;;;691.50;1868.80;;;;;;5073275;28;20055;-71
2021/07/14 00:30:48;;;;;;;1999.90;999.90;;;691.40;1868.80;;;;;;5073621;28;20063;-71
2021/07/14 00:33:14;;;;;;;1999.90;999.90;;;691.30;1868.80;;;;;;5073092;28;20086;-72
2021/07/14 00:35:40;;;;;;;1999.90;999.90;;;691.30;1894.40;;;;;;5073130;28;20025;-72
2021/07/14 00:38:06;;;;;;;1999.90;999.90;;;691.30;1894.40;;;;;;5073069;28;20025;-73
2021/07/14 00:40:32;;;;;;;1999.90;999.90;;;691.30;1868.80;;;;;;5073116;28;20028;-72
2021/07/14 00:42:58;;;;;;;1999.90;999.90;;;691.30;1868.80;;;;;;5072899;28;20092;-73
2021/07/14 00:45:24;;;;;;;1999.90;999.90;;;691.20;1868.80;;;;;;5072971;28;20119;-72
2021/07/14 00:47:56;;;;;;;1999.90;999.90;;;691.20;1868.80;;;;;;5073042;28;20016;-71
2021/07/14 00:50:22;;;;;;;1999.90;999.90;;;691.20;1868.80;;;;;;5072944;28;20074;-71
2021/07/14 00:52:48;;;;;;;1999.90;999.90;;;666.50;1868.80;;;;;;5072999;28;20394;-72
2021/07/14 00:55:14;;;;;;;1999.90;999.90;;;691.20;1868.80;;;;;;5072891;28;20060;-71
2021/07/14 00:57:40;;;;;;;1999.90;999.90;;;666.50;1868.80;;;;;;5072876;28;20075;-71
2021/07/14 01:00:08;;;;;;;1999.90;999.90;;;691.20;1868.80;;;;;;5073064;28;20107;-71
2021/07/14 01:02:34;;;;;;;1999.90;999.90;;;691.20;1868.80;;;;;;5072688;28;20028;-71
2021/07/14 01:05:03;;;;;;;1999.90;999.90;;;691.20;1868.80;;;;;;5073115;28;20462;-71
2021/07/14 01:07:38;;;;;;;1999.90;999.90;;;691.30;1868.80;;;;;;5072700;28;20051;-71
2021/07/14 01:10:22;;;;;;;1999.90;999.90;;;691.30;1868.80;;;;;;5072752;28;20028;-70
2021/07/14 01:13:04;;;;;;;1999.90;999.90;;;691.20;1868.80;;;;;;5072648;28;20506;-73
2021/07/14 01:15:36;;;;;;;1999.90;999.90;;;691.20;1868.80;;;;;;5072484;28;20028;-71
2021/07/14 01:18:24;;;;;;;1999.90;999.90;;;691.20;1868.80;;;;;;5072565;28;20489;-69
2021/07/14 01:21:14;;;;;;;1999.90;999.90;;;666.50;1894.40;;;;;;5072553;28;20535;-70
2021/07/14 01:23:40;;;;;;;1999.90;999.90;;;666.40;1894.40;;;;;;5072681;28;20021;-71
2021/07/14 01:26:33;;;;;;;1999.90;999.90;;;666.30;1894.40;;;;;;5072289;28;20024;-71
2021/07/14 01:29:06;;;;;;;1999.90;999.90;;;666.30;1894.40;;;;;;5072417;28;20046;-72
2021/07/14 01:31:34;;;;;;;1999.90;999.90;;;666.20;1894.40;;;;;;5072214;28;20025;-71
2021/07/14 01:34:03;;;;;;;1999.90;999.90;;;666.20;1920.00;;;;;;5072328;28;20498;-71
2021/07/14 01:36:31;;;;;;;1999.90;999.90;;;666.10;1920.00;;;;;;5072334;28;20024;-71
2021/07/14 01:38:58;;;;;;;1999.90;999.90;;;666.20;1920.00;;;;;;5072435;28;20107;-71
2021/07/14 01:41:27;;;;;;;1999.90;999.90;;;666.00;1920.00;;;;;;5072309;28;20092;-71
2021/07/14 01:43:57;;;;;;;1999.90;999.90;;;666.00;1920.00;;;;;;5072205;28;20127;-71
2021/07/14 01:46:26;;;;;;;1999.90;999.90;;;666.00;1920.00;;;;;;5072272;28;20498;-71
2021/07/14 01:48:55;;;;;;;1999.90;999.90;;;666.00;1920.00;;;;;;5072067;28;20261;-71
2021/07/14 01:51:22;;;;;;;1999.90;999.90;;;665.90;1920.00;;;;;;5072309;28;20064;-71
2021/07/14 01:53:49;;;;;;;1999.90;999.90;;;665.90;1945.60;;;;;;5072055;28;20277;-72
2021/07/14 01:56:15;;;;;;;1999.90;999.90;;;665.90;1945.60;;;;;;5072864;28;20024;-72
2021/07/14 01:58:46;;;;;;;1999.90;999.90;;;665.90;1945.60;;;;;;5071074;28;20386;-71
2021/07/14 02:01:14;;;;;;;1999.90;999.90;;;665.90;1945.60;;;;;;5072047;28;20169;-72
2021/07/14 02:03:54;;;;;;;1999.90;999.90;;;665.90;1945.60;;;;;;5072147;28;20025;-72
2021/07/14 02:06:20;;;;;;;1999.90;999.90;;;665.90;1945.60;;;;;;5072313;28;20024;-71
2021/07/14 02:08:46;;;;;;;1999.90;999.90;;;665.90;1945.60;;;;;;5072209;28;20041;-72
2021/07/14 02:11:12;;;;;;;1999.90;999.90;;;665.90;1945.60;;;;;;5072077;28;20429;-72
2021/07/14 02:13:38;;;;;;;1999.90;999.90;;;665.90;1945.60;;;;;;5070729;28;20386;-72
2021/07/14 02:16:08;;;;;;;1999.90;999.90;;;665.90;1945.60;;;;;;5071963;28;20360;-72
2021/07/14 02:18:40;;;;;;;1999.90;999.90;;;665.80;1945.60;;;;;;5071040;28;20017;-70
2021/07/14 02:21:05;;;;;;;1999.90;999.90;;;665.90;1945.60;;;;;;5071779;28;20029;-71
2021/07/14 02:23:31;;;;;;;1999.90;999.90;;;665.90;1945.60;;;;;;5072250;28;20032;-71
2021/07/14 02:26:01;;;;;;;1999.90;999.90;;;665.80;1945.60;;;;;;5072293;28;20025;-71
2021/07/14 02:28:27;;;;;;;1999.90;999.90;;;665.70;1945.60;;;;;;5071851;28;20026;-71
2021/07/14 02:30:52;;;;;;;1999.90;999.90;;;665.70;1945.60;;;;;;5071970;28;20348;-72
2021/07/14 02:33:19;;;;;;;1999.90;999.90;;;665.60;1971.20;;;;;;5071659;28;20021;-72
2021/07/14 02:35:47;;;;;;;1999.90;999.90;;;665.60;1945.60;;;;;;5071687;28;20013;-71
2021/07/14 02:38:17;;;;;;;1999.90;999.90;;;665.60;1945.60;;;;;;5071733;28;20032;-71
2021/07/14 02:40:58;;;;;;;1999.90;999.90;;;665.60;1945.60;;;;;;5072459;28;20164;-71
2021/07/14 02:43:30;;;;;;;1999.90;999.90;;;640.90;1920.00;;;;;;5066748;28;20376;-72
2021/07/14 02:46:02;;;;;;;1999.90;999.90;;;640.90;1945.60;;;;;;5076044;28;20058;-83
2021/07/14 02:48:28;;;;;;;1999.90;999.90;;;640.90;1945.60;;;;;;5075234;28;20032;-83
2021/07/14 02:50:57;;;;;;;1999.90;999.90;;;640.80;1945.60;;;;;;5075515;28;20048;-81
2021/07/14 02:53:41;;;;;;;1999.90;999.90;;;640.80;1945.60;;;;;;5075478;28;20074;-81
2021/07/14 02:56:15;;;;;;;1999.90;999.90;;;640.80;1945.60;;;;;;5074106;28;20124;-81
2021/07/14 02:58:44;;;;;;;1999.90;999.90;;;640.80;1945.60;;;;;;5075467;28;20095;-83
2021/07/14 03:01:14;;;;;;;1999.90;999.90;;;640.80;1945.60;;;;;;5075260;28;20024;-81
2021/07/14 03:03:41;;;;;;;1999.90;999.90;;;640.80;1945.60;;;;;;5075379;28;20028;-80
2021/07/14 03:06:07;;;;;;;1999.90;999.90;;;640.70;1945.60;;;;;;5075176;28;20391;-75
2021/07/14 03:08:33;;;;;;;1999.90;999.90;;;640.70;1945.60;;;;;;5075060;28;20070;-81
2021/07/14 03:11:01;;;;;;;1999.90;999.90;;;640.70;1945.60;;;;;;5075097;28;20398;-82
2021/07/14 03:13:29;;;;;;;1999.90;999.90;;;640.80;1945.60;;;;;;5074845;28;20016;-82
2021/07/14 03:15:57;;;;;;;1999.90;999.90;;;640.70;1945.60;;;;;;5074974;28;20016;-79
2021/07/14 03:18:27;;;;;;;1999.90;999.90;;;640.90;1945.60;;;;;;5074805;28;20085;-83
2021/07/14 03:20:55;;;;;;;1999.90;999.90;;;640.90;1945.60;;;;;;5075001;28;20103;-83
2021/07/14 03:23:21;;;;;;;1999.90;999.90;;;640.90;1945.60;;;;;;5074735;28;20029;-82
2021/07/14 03:25:50;;;;;;;1999.90;999.90;;;665.60;1971.20;;;;;;5074911;28;20025;-83
2021/07/14 03:28:17;;;;;;;1999.90;999.90;;;640.90;1945.60;;;;;;5074771;28;20023;-80
2021/07/14 03:30:46;;;;;;;1999.90;999.90;;;640.90;1945.60;;;;;;5074585;28;20025;-83
2021/07/14 03:33:13;;;;;;;1999.90;999.90;;;640.90;1945.60;;;;;;5073577;28;20025;-81
2021/07/14 03:35:39;;;;;;;1999.90;999.90;;;665.60;1971.20;;;;;;5074417;28;20104;-84
2021/07/14 03:38:09;;;;;;;1999.90;999.90;;;640.90;1945.60;;;;;;5073113;28;20508;-82
2021/07/14 03:40:37;;;;;;;1999.90;999.90;;;640.80;1945.60;;;;;;5074547;28;20066;-80
2021/07/14 03:43:04;;;;;;;1999.90;999.90;;;640.80;1971.20;;;;;;5074468;28;20025;-82
2021/07/14 03:45:31;;;;;;;1999.90;999.90;;;640.70;1971.20;;;;;;5074517;28;20099;-72
2021/07/14 03:47:59;;;;;;;1999.90;999.90;;;640.70;1971.20;;;;;;5074610;28;20024;-81
2021/07/14 03:50:25;;;;;;;1999.90;999.90;;;640.70;1971.20;;;;;;5074283;28;20077;-77
2021/07/14 03:52:52;;;;;;;1999.90;999.90;;;640.70;1971.20;;;;;;5074189;28;20024;-78
2021/07/14 03:55:19;;;;;;;1999.90;999.90;;;640.70;1971.20;;;;;;5074247;28;20043;-76
2021/07/14 03:57:45;;;;;;;1999.90;999.90;;;640.70;1971.20;;;;;;5074022;28;20020;-80
2021/07/14 04:00:12;;;;;;;1999.90;999.90;;;640.70;1996.80;;;;;;5074375;28;20016;-83
2021/07/14 04:02:41;;;;;;;1999.90;999.90;;;640.70;1996.80;;;;;;5074001;28;20027;-82
2021/07/14 04:05:07;;;;;;;1999.90;999.90;;;640.70;1996.80;;;;;;5073979;28;20028;-78
2021/07/14 04:07:34;;;;;;;1999.90;999.90;;;640.70;1996.80;;;;;;5074281;28;20032;-77
2021/07/14 04:10:03;;;;;;;1999.90;999.90;;;640.70;1996.80;;;;;;5074130;28;20027;-77
2021/07/14 04:12:29;;;;;;;1999.90;999.90;;;640.80;1996.80;;;;;;5073816;28;20078;-72
2021/07/14 04:14:55;;;;;;;1999.90;999.90;;;640.70;1996.80;;;;;;5073574;28;20111;-76
2021/07/14 04:17:21;;;;;;;1999.90;999.90;;;640.90;1996.80;;;;;;5074054;28;20063;-77
2021/07/14 04:19:47;;;;;;;1999.90;999.90;;;640.90;1996.80;;;;;;5073623;28;20024;-77
2021/07/14 04:22:13;;;;;;;1999.90;999.90;;;640.90;1971.20;;;;;;5073681;28;20074;-82
2021/07/14 04:24:40;;;;;;;1999.90;999.90;;;640.90;1996.80;;;;;;5073579;28;20027;-76
2021/07/14 04:27:08;;;;;;;1999.90;999.90;;;665.60;2022.40;;;;;;5073542;28;20070;-74
2021/07/14 04:29:33;;;;;;;1999.90;999.90;;;665.60;1996.80;;;;;;5073547;28;20043;-70
2021/07/14 04:31:59;;;;;;;1999.90;999.90;;;665.70;2022.40;;;;;;5073256;28;20042;-72
2021/07/14 04:34:25;;;;;;;1999.90;999.90;;;665.70;2022.40;;;;;;5073129;28;20032;-72
2021/07/14 04:36:51;;;;;;;1999.90;999.90;;;665.70;2022.40;;;;;;5073568;28;20031;-81
2021/07/14 04:39:17;;;;;;;1999.90;999.90;;;665.80;1996.80;;;;;;5073475;28;20017;-82
2021/07/14 04:41:43;;;;;;;1999.90;999.90;;;665.90;2022.40;;;;;;5073324;28;20382;-82
2021/07/14 04:44:11;;;;;;;1999.90;999.90;;;665.90;2022.40;;;;;;5073223;28;20056;-76
2021/07/14 04:46:37;;;;;;;1999.90;999.90;;;665.90;1996.80;;;;;;5073459;28;20033;-78
2021/07/14 04:49:03;;;;;;;1999.90;999.90;;;665.90;2022.40;;;;;;5073438;28;20035;-82
2021/07/14 04:51:29;;;;;;;1999.90;999.90;;;666.00;1996.80;;;;;;5073136;28;20107;-77
2021/07/14 04:53:55;;;;;;;1999.90;999.90;;;666.00;1996.80;;;;;;5073199;28;20107;-71
2021/07/14 04:56:21;;;;;;;1999.90;999.90;;;666.10;1996.80;;;;;;5072815;28;20012;-71
2021/07/14 04:58:48;;;;;;;1999.90;999.90;;;666.20;1996.80;;;;;;5073075;28;20016;-81
2021/07/14 05:01:16;;;;;;;1999.90;999.90;;;666.20;1996.80;;;;;;5074394;28;20016;-71
2021/07/14 05:03:46;;;;;;;1999.90;999.90;;;666.20;1996.80;;;;;;5078193;28;20024;-81
2021/07/14 05:06:20;;;;;;;1999.90;999.90;;;666.30;1996.80;;;;;;5077146;28;20028;-83
2021/07/14 05:08:46;;;;;;;1999.90;999.90;;;666.50;1996.80;;;;;;5073001;28;20482;-72
2021/07/14 05:11:15;;;;;;;1999.90;999.90;;;666.50;1996.80;;;;;;5072798;28;20123;-78
2021/07/14 05:13:41;;;;;;;1999.90;999.90;;;691.30;1996.80;;;;;;5072983;28;20035;-82
2021/07/14 05:16:08;;;;;;;1999.90;999.90;;;691.40;1996.80;;;;;;5072860;28;20024;-75
2021/07/14 05:18:35;;;;;;;1999.90;999.90;;;691.40;1996.80;;;;;;5073098;28;20094;-75
2021/07/14 05:21:01;;;;;;;1999.90;999.90;;;691.50;1996.80;;;;;;5071897;28;20082;-78
2021/07/14 05:23:27;;;;;;;1999.90;999.90;;;691.60;2022.40;;;;;;5072775;28;20021;-78
2021/07/14 05:25:52;;;;;;;1999.90;999.90;;;691.60;1971.20;;;;;;5072804;28;20051;-77
2021/07/14 05:28:18;;;;;;;1999.90;999.90;;;691.60;1971.20;;;;;;5072836;28;20395;-83
2021/07/14 05:30:45;;;;;;;1999.90;999.90;;;691.70;1971.20;;;;;;5072711;28;20029;-81
2021/07/14 05:33:11;;;;;;;1999.90;999.90;;;691.70;1971.20;;;;;;5072496;28;20032;-81
2021/07/14 05:35:36;;;;;;;1999.90;999.90;;;691.80;1971.20;;;;;;5072768;28;20017;-81
2021/07/14 05:38:04;;;;;;;1999.90;999.90;;;691.90;1945.60;;;;;;5073261;28;20017;-81
2021/07/14 05:40:30;;;;;;;1999.90;999.90;;;691.90;1945.60;;;;;;5072081;28;20028;-75
2021/07/14 05:42:55;;;;;;;1999.90;999.90;;;691.90;1945.60;;;;;;5072370;28;20017;-75
2021/07/14 05:45:24;;;;;;;1999.90;999.90;;;691.90;1945.60;;;;;;5070682;28;20108;-76
2021/07/14 05:47:49;;;;;;;1999.90;999.90;;;692.10;1971.20;;;;;;5070883;28;20025;-73
2021/07/14 05:50:16;;;;;;;1999.90;999.90;;;716.80;1971.20;;;;;;5068963;28;20039;-71
2021/07/14 05:52:42;;;;;;;1999.90;999.90;;;716.80;1945.60;;;;;;5072141;28;20019;-71
2021/07/14 05:55:10;;;;;;;1999.90;999.90;;;716.90;1945.60;;;;;;5072252;28;20032;-72
2021/07/14 05:57:37;;;;;;;1999.90;999.90;;;716.90;1945.60;;;;;;5070847;28;20390;-72
2021/07/14 06:00:08;;;;;;;1999.90;999.90;;;716.90;1945.60;;;;;;5072075;28;20028;-72
2021/07/14 06:02:34;;;;;;;1999.90;999.90;;;717.00;1945.60;;;;;;5070738;28;20017;-73
2021/07/14 06:05:00;;;;;;;1999.90;999.90;;;717.10;1945.60;;;;;;5072182;28;20521;-72
2021/07/14 06:07:26;;;;;;;1999.90;999.90;;;717.10;1945.60;;;;;;5072089;28;20483;-72
2021/07/14 06:09:52;;;;;;;1999.90;999.90;;;717.10;1945.60;;;;;;5071875;28;20047;-73
2021/07/14 06:12:17;;;;;;;1999.90;999.90;;;717.20;1945.60;;;;;;5072228;28;20024;-72
2021/07/14 06:14:45;;;;;;;1999.90;999.90;;;717.20;1945.60;;;;;;5071715;28;20396;-71
2021/07/14 06:17:11;;;;;;;1999.90;999.90;;;717.30;1920.00;;;;;;5075167;28;20052;-71
2021/07/14 06:19:36;;;;;;;1999.90;999.90;;;717.40;1945.60;;;;;;5075837;28;20056;-72
2021/07/14 06:22:03;;;;;;;1999.90;999.90;;;717.40;1945.60;;;;;;5075855;28;20216;-73
2021/07/14 06:24:29;;;;;;;1999.90;999.90;;;717.50;1920.00;;;;;;5075821;28;20375;-73
2021/07/14 06:26:55;;;;;;;1999.90;999.90;;;717.50;1920.00;;;;;;5075735;28;20021;-73
2021/07/14 06:29:24;;;;;;;1999.90;999.90;;;717.50;1920.00;;;;;;5075704;28;20432;-73
2021/07/14 06:31:50;;;;;;;1999.90;999.90;;;717.70;1945.60;;;;;;5075617;28;20024;-73
2021/07/14 06:34:16;;;;;;;1999.90;999.90;;;742.40;1945.60;;;;;;5075672;28;20052;-73
2021/07/14 06:36:43;;;;;;;1999.90;999.90;;;742.40;1920.00;;;;;;5075473;28;20110;-72
2021/07/14 06:39:08;;;;;;;1999.90;999.90;;;742.50;1945.60;;;;;;5075611;28;20029;-73
2021/07/14 06:41:34;;;;;;;1999.90;999.90;;;742.50;1945.60;;;;;;5075482;28;20028;-73
2021/07/14 06:44:01;;;;;;;1999.90;999.90;;;742.60;1894.40;;;;;;5075126;28;20044;-73
2021/07/14 06:46:28;;;;;;;1999.90;999.90;;;742.80;1894.40;;;;;;5075470;28;20033;-72
2021/07/14 06:48:54;;;;;;;1999.90;999.90;;;742.90;1894.40;;;;;;5075232;28;20531;-72
2021/07/14 06:51:20;;;;;;;1999.90;999.90;;;743.00;1868.80;;;;;;5075359;28;20028;-74
2021/07/14 06:53:45;;;;;;;1999.90;999.90;;;743.20;1843.20;;;;;;5075540;28;20028;-72
2021/07/14 06:56:11;;;;;;;1999.90;999.90;;;743.30;1843.20;;;;;;5075424;28;20081;-74
2021/07/14 06:58:39;;;;;;;1999.90;999.90;;;768.10;1843.20;;;;;;5075220;28;20028;-73
2021/07/14 07:01:06;;;;;;;1999.90;999.90;;;768.10;1843.20;;;;;;5074910;28;20558;-72
2021/07/14 07:03:32;;;;;;;1999.90;999.90;;;768.40;1817.60;;;;;;5075205;28;20099;-71
2021/07/14 07:05:58;;;;;;;1999.90;999.90;;;768.40;1817.60;;;;;;5074866;28;20532;-72
2021/07/14 07:08:23;;;;;;;1999.90;999.90;;;768.50;1792.00;;;;;;5074891;28;20032;-72
2021/07/14 07:10:49;;;;;;;1999.90;999.90;;;768.60;1792.00;;;;;;5075029;28;20064;-72
2021/07/14 07:13:16;;;;;;;1999.90;999.90;;;768.70;1792.00;;;;;;5074750;28;20025;-72
2021/07/14 07:15:46;;;;;;;1999.90;999.90;;;768.80;1792.00;;;;;;5074755;28;20052;-72
2021/07/14 07:18:12;;;;;;;1999.90;999.90;;;768.90;1766.40;;;;;;5074078;28;20025;-72
2021/07/14 07:20:38;;;;;;;1999.90;999.90;;;768.90;1792.00;;;;;;5074539;28;20027;-72
2021/07/14 07:23:05;;;;;;;1999.90;999.90;;;793.70;1792.00;;;;;;5071561;28;20031;-73
2021/07/14 07:25:31;;;;;;;1999.90;999.90;;;793.60;1792.00;;;;;;5073455;28;20028;-72
2021/07/14 07:27:59;;;;;;;1999.90;999.90;;;793.70;1792.00;;;;;;5059219;28;20505;-73
2021/07/14 07:30:25;;;;;;;1999.90;999.90;;;793.80;1792.00;;;;;;5059858;28;20064;-72
2021/07/14 07:32:51;;;;;;;1999.90;999.90;;;794.00;1792.00;;;;;;5058698;28;20033;-72
2021/07/14 07:35:17;;;;;;;1999.90;999.90;;;794.10;1792.00;;;;;;5060028;28;20041;-72
2021/07/14 07:37:42;;;;;;;1999.90;999.90;;;794.20;1740.80;;;;;;5070858;28;20025;-72
2021/07/14 07:40:09;;;;;;;1999.90;999.90;;;794.20;1766.40;;;;;;5067522;28;20021;-72
2021/07/14 07:42:35;;;;;;;1999.90;999.90;;;794.20;1766.40;;;;;;5070684;28;20013;-72
2021/07/14 07:45:01;;;;;;;1999.90;999.90;;;794.40;1740.80;;;;;;5070176;28;20106;-72
2021/07/14 07:47:27;;;;;;;1999.90;999.90;;;794.50;1740.80;;;;;;5073806;28;20825;-72
2021/07/14 07:49:53;;;;;;;1999.90;999.90;;;819.20;1740.80;;;;;;5074321;28;20086;-71
2021/07/14 07:52:19;;;;;;;1999.90;999.90;;;819.20;1715.20;;;;;;5073720;28;20028;-74
2021/07/14 07:54:45;;;;;;;1999.90;999.90;;;819.30;1715.20;;;;;;5073415;28;20492;-70
2021/07/14 07:57:11;;;;;;;1999.90;999.90;;;819.30;1715.20;;;;;;5073846;28;20024;-72
2021/07/14 07:59:37;;;;;;;1999.90;999.90;;;819.30;1689.60;;;;;;5073528;28;20394;-72
2021/07/14 08:02:04;;;;;;;1999.90;999.90;;;819.40;1715.20;;;;;;5073899;28;20467;-72
2021/07/14 08:04:30;;;;;;;1999.90;999.90;;;819.60;1689.60;;;;;;5073268;28;20017;-70
2021/07/14 08:06:56;;;;;;;1999.90;999.90;;;819.50;1689.60;;;;;;5073344;28;20046;-70
2021/07/14 08:09:22;;;;;;;1999.90;999.90;;;819.60;1689.60;;;;;;5073430;28;20111;-70
2021/07/14 08:11:48;;;;;;;1999.90;999.90;;;819.60;1689.60;;;;;;5073892;28;20017;-72
2021/07/14 08:14:16;;;;;;;1999.90;999.90;;;819.60;1664.00;;;;;;5073255;28;20446;-70
2021/07/14 08:16:42;;;;;;;1999.90;999.90;;;819.70;1689.60;;;;;;5072919;28;20025;-71
2021/07/14 08:19:08;;;;;;;1999.90;999.90;;;819.70;1689.60;;;;;;5073209;28;20103;-70
2021/07/14 08:21:34;;;;;;;1999.90;999.90;;;819.80;1689.60;;;;;;5072996;28;20417;-72
2021/07/14 08:24:00;;;;;;;1999.90;999.90;;;819.90;1689.60;;;;;;5072879;28;20031;-72
2021/07/14 08:26:26;;;;;;;1999.90;999.90;;;819.90;1689.60;;;;;;5072747;28;20070;-72
2021/07/14 08:28:51;;;;;;;1999.90;999.90;;;820.00;1664.00;;;;;;5072773;28;20031;-75
2021/07/14 08:31:18;;;;;;;1999.90;999.90;;;820.00;1664.00;;;;;;5073113;28;20025;-75
2021/07/14 08:33:44;;;;;;;1999.90;999.90;;;820.10;1664.00;;;;;;5072650;28;20567;-73
2021/07/14 08:36:09;;;;;;;1999.90;999.90;;;820.10;1664.00;;;;;;5072862;28;20024;-72
2021/07/14 08:38:35;;;;;;;1999.90;999.90;;;844.80;1689.60;;;;;;5060610;28;20073;-73
2021/07/14 08:41:02;;;;;;;1999.90;999.90;;;844.80;1689.60;;;;;;5055795;28;20387;-72
2021/07/14 08:43:32;;;;;;;1999.90;999.90;;;844.90;1689.60;;;;;;5055602;28;20028;-71
2021/07/14 08:45:59;;;;;;;1999.90;999.90;;;845.00;1689.60;;;;;;5055173;28;20021;-71
2021/07/14 08:48:26;;;;;;;1999.90;999.90;;;844.90;1689.60;;;;;;5053753;28;20375;-72
2021/07/14 08:50:57;;;;;;;1999.90;999.90;;;845.00;1689.60;;;;;;5055500;28;20493;-71
2021/07/14 08:53:24;;;;;;;1999.90;999.90;;;845.00;1689.60;;;;;;5052682;28;20032;-72
2021/07/14 08:55:50;;;;;;;1999.90;999.90;;;845.00;1664.00;;;;;;5066073;28;20024;-73
2021/07/14 08:58:18;;;;;;;1999.90;999.90;;;845.00;1689.60;;;;;;5072404;28;20028;-78
2021/07/14 09:00:46;;;;;;;1999.90;999.90;;;845.20;1689.60;;;;;;5072803;28;20071;-79
2021/07/14 09:03:12;;;;;;;1999.90;999.90;;;845.20;1689.60;;;;;;5072368;28;20081;-78
2021/07/14 09:05:38;;;;;;;1999.90;999.90;;;845.20;1689.60;;;;;;5072674;28;20490;-76
2021/07/14 09:08:04;;;;;;;1999.90;999.90;;;845.20;1689.60;;;;;;5072298;28;20147;-75
2021/07/14 09:10:30;;;;;;;1999.90;999.90;;;845.30;1689.60;;;;;;5070135;28;20024;-77
2021/07/14 09:12:58;;;;;;;1999.90;999.90;;;845.40;1664.00;;;;;;5061070;28;20437;-77
2021/07/14 09:15:27;;;;;;;1999.90;999.90;;;845.30;1664.00;;;;;;5053808;28;20037;-72
2021/07/14 09:17:58;;;;;;;1999.90;999.90;;;845.30;1689.60;;;;;;5055619;28;20108;-72
2021/07/14 09:20:24;;;;;;;1999.90;999.90;;;845.40;1689.60;;;;;;5055744;28;20040;-71
2021/07/14 09:23:06;;;;;;;1999.90;999.90;;;845.30;1689.60;;;;;;5054830;28;20032;-72
2021/07/14 09:25:46;;;;;;;1999.90;999.90;;;845.40;1689.60;;;;;;5054694;28;20100;-71
2021/07/14 09:28:14;;;;;;;1999.90;999.90;;;845.40;1689.60;;;;;;5067906;28;20035;-71
2021/07/14 09:30:42;;;;;;;1999.90;999.90;;;845.50;1689.60;;;;;;5055031;28;20043;-72
2021/07/14 09:33:14;;;;;;;1999.90;999.90;;;845.60;1664.00;;;;;;5054651;28;20108;-71
2021/07/14 09:35:45;;;;;;;1999.90;999.90;;;845.50;1664.00;;;;;;5055690;28;20023;-72
2021/07/14 09:38:20;;;;;;;1999.90;999.90;;;845.40;1664.00;;;;;;5069028;28;20479;-71
2021/07/14 09:40:59;;;;;;;1999.90;999.90;;;845.60;1664.00;;;;;;5071906;28;20091;-71
2021/07/14 09:43:30;;;;;;;1999.90;999.90;;;845.70;1664.00;;;;;;5058489;28;20061;-71
2021/07/14 09:45:57;;;;;;;1999.90;999.90;;;845.70;1664.00;;;;;;5071811;28;20013;-70
2021/07/14 09:48:36;;;;;;;1999.90;999.90;;;845.70;1664.00;;;;;;5071295;28;20017;-70
2021/07/14 09:51:09;;;;;;;1999.90;999.90;;;845.70;1664.00;;;;;;5070617;28;20021;-70
2021/07/14 09:53:38;;;;;;;1999.90;999.90;;;845.70;1664.00;;;;;;5075685;28;20024;-71
2021/07/14 09:56:22;;;;;;;1999.90;999.90;;;845.70;1664.00;;;;;;5075815;28;20019;-71
2021/07/14 09:59:08;;;;;;;1999.90;999.90;;;870.40;1664.00;;;;;;5065146;28;20369;-70
2021/07/14 10:01:43;;;;;;;1999.90;999.90;;;870.50;1664.00;;;;;;5056200;28;20109;-71
2021/07/14 10:04:19;;;;;;;1999.90;999.90;;;870.50;1664.00;;;;;;5056826;28;20108;-74
2021/07/14 10:06:45;;;;;;;1999.90;999.90;;;870.50;1664.00;;;;;;5056721;28;20483;-74
2021/07/14 10:09:22;;;;;;;1999.90;999.90;;;870.50;1664.00;;;;;;5056660;28;20090;-71
2021/07/14 10:11:48;;;;;;;1999.90;999.90;;;845.70;1689.60;;;;;;5075549;28;20100;-71
2021/07/14 10:14:13;;;;;;;1999.90;999.90;;;870.50;1638.40;;;;;;5075380;28;20133;-71
2021/07/14 10:16:41;;;;;;;1999.90;999.90;;;870.50;1638.40;;;;;;5071673;28;20032;-70
2021/07/14 10:19:12;;;;;;;1999.90;999.90;;;870.50;1664.00;;;;;;5056414;28;20016;-71
2021/07/14 10:21:40;;;;;;;1999.90;999.90;;;870.70;1664.00;;;;;;5056830;28;20033;-71
2021/07/14 10:24:10;;;;;;;1999.90;999.90;;;870.50;1638.40;;;;;;5056247;28;20112;-71
2021/07/14 10:26:38;;;;;;;1999.90;999.90;;;870.60;1664.00;;;;;;5056597;28;20029;-71
2021/07/14 10:29:04;;;;;;;1999.90;999.90;;;870.60;1638.40;;;;;;5056159;28;20506;-71
2021/07/14 10:31:31;;;;;;;1999.90;999.90;;;870.60;1664.00;;;;;;5056765;28;20060;-71
2021/07/14 10:33:57;;;;;;;1999.90;999.90;;;870.60;1664.00;;;;;;5075051;28;20032;-70
2021/07/14 10:36:29;;;;;;;1999.90;999.90;;;870.60;1664.00;;;;;;5075215;28;20087;-69
2021/07/14 10:39:00;;;;;;;1999.90;999.90;;;870.60;1664.00;;;;;;5068419;28;20036;-71
2021/07/14 10:41:28;;;;;;;1999.90;999.90;;;870.70;1664.00;;;;;;5056917;28;20040;-71
2021/07/14 10:43:55;;;;;;;1999.90;999.90;;;870.60;1664.00;;;;;;5072738;28;20090;-70
2021/07/14 10:46:23;;;;;;;1999.90;999.90;;;870.50;1664.00;;;;;;5074480;28;20028;-71
2021/07/14 10:48:52;;;;;;;1999.90;999.90;;;870.70;1664.00;;;;;;5067491;28;20429;-71
2021/07/14 10:51:19;;;;;;;1999.90;999.90;;;870.60;1664.00;;;;;;5066997;28;20016;-70
2021/07/14 10:53:48;;;;;;;1999.90;999.90;;;870.60;1664.00;;;;;;5064208;28;20028;-71
2021/07/14 10:56:14;;;;;;;1999.90;999.90;;;870.50;1689.60;;;;;;5071813;28;20013;-70
2021/07/14 10:58:42;;;;;;;1999.90;999.90;;;870.70;1664.00;;;;;;5071515;28;20047;-71
2021/07/14 11:01:09;;;;;;;1999.90;999.90;;;870.50;1689.60;;;;;;5065954;28;20029;-72
2021/07/14 11:03:40;;;;;;;1999.90;999.90;;;870.60;1664.00;;;;;;5068297;28;20009;-71
2021/07/14 11:06:09;;;;;;;1999.90;999.90;;;870.60;1664.00;;;;;;5068343;28;20104;-72
2021/07/14 11:08:50;;;;;;;1999.90;999.90;;;870.60;1689.60;;;;;;5070295;28;20017;-71
2021/07/14 11:11:20;;;;;;;1999.90;999.90;;;870.50;1689.60;;;;;;5061499;28;20024;-71
2021/07/14 11:13:51;;;;;;;1999.90;999.90;;;870.70;1664.00;;;;;;5060923;28;20040;-69
2021/07/14 11:16:34;;;;;;;1999.90;999.90;;;870.70;1689.60;;;;;;5060670;28;20108;-70
2021/07/14 11:19:04;;;;;;;1999.90;999.90;;;870.70;1664.00;;;;;;5060169;28;20028;-71
2021/07/14 11:21:56;;;;;;;1999.90;999.90;;;870.70;1689.60;;;;;;5061479;28;20028;-71
2021/07/14 11:24:38;;;;;;;1999.90;999.90;;;870.70;1689.60;;;;;;5067217;28;20033;-71
2021/07/14 11:27:22;;;;;;;1999.90;999.90;;;870.70;1664.00;;;;;;5059006;28;20039;-71
2021/07/14 11:29:55;;;;;;;1999.90;999.90;;;870.80;1664.00;;;;;;5059853;28;20107;-70
2021/07/14 11:32:39;;;;;;;1999.90;999.90;;;870.80;1664.00;;;;;;5061773;28;20032;-70
2021/07/14 11:35:19;;;;;;;1999.90;999.90;;;870.70;1664.00;;;;;;5060977;28;20028;-70
2021/07/14 11:37:51;;;;;;;1999.90;999.90;;;870.80;1664.00;;;;;;5059120;28;20017;-70
2021/07/14 11:40:20;;;;;;;1999.90;999.90;;;870.90;1664.00;;;;;;5061688;28;20107;-70
2021/07/14 11:43:12;;;;;;;1999.90;999.90;;;870.70;1664.00;;;;;;5060170;28;20029;-71
2021/07/14 11:45:44;;;;;;;1999.90;999.90;;;870.90;1664.00;;;;;;5063216;28;20443;-70